Time;durP1;ratioP1;P1;durP2;ratioP2;P2;SDS_P1;SDS_P2;PMS_P1;PMS_P2;Temp;Humidity;BMP_temperature;BMP_pressure;BME280_temperature;BME280_humidity;BME280_pressure;Samples;Min_cycle;Max_cycle;Signal;HPM_P1;HPM_P2
2021/10/30 00:00:55;;;;;;;16.90;9.53;;;6.60;99.90;;;;;;5013851;28;20022;-77
2021/10/30 00:03:21;;;;;;;17.40;10.10;;;6.60;99.90;;;;;;5013524;28;20065;-76
2021/10/30 00:05:48;;;;;;;15.63;9.40;;;6.60;99.90;;;;;;5013791;28;20021;-77
2021/10/30 00:08:15;;;;;;;14.75;8.82;;;6.60;99.90;;;;;;5013129;28;20021;-77
2021/10/30 00:10:41;;;;;;;14.73;8.90;;;6.60;99.90;;;;;;5013692;28;20032;-77
2021/10/30 00:13:07;;;;;;;17.38;9.77;;;6.60;99.90;;;;;;5012908;28;20493;-76
2021/10/30 00:15:33;;;;;;;15.43;9.60;;;6.60;99.90;;;;;;5013090;28;20030;-77
2021/10/30 00:17:59;;;;;;;16.23;9.33;;;6.60;99.90;;;;;;5013299;28;20022;-76
2021/10/30 00:20:25;;;;;;;16.77;9.67;;;6.60;99.90;;;;;;5013854;28;20428;-76
2021/10/30 00:22:51;;;;;;;18.80;9.87;;;6.60;99.90;;;;;;5014645;28;20486;-76
2021/10/30 00:25:17;;;;;;;17.90;10.23;;;6.60;99.90;;;;;;5013185;28;20117;-77
2021/10/30 00:27:43;;;;;;;21.73;10.00;;;6.50;99.90;;;;;;5014372;28;20475;-76
2021/10/30 00:30:09;;;;;;;14.53;8.70;;;6.40;99.90;;;;;;5012677;28;20044;-77
2021/10/30 00:32:36;;;;;;;17.53;9.60;;;6.30;99.90;;;;;;5014217;28;20026;-76
2021/10/30 00:35:03;;;;;;;14.97;8.73;;;6.30;99.90;;;;;;5012857;28;20026;-76
2021/10/30 00:37:29;;;;;;;14.40;8.73;;;6.30;99.90;;;;;;5012179;28;20451;-76
2021/10/30 00:39:54;;;;;;;14.03;8.23;;;6.30;99.90;;;;;;5012506;28;20030;-76
2021/10/30 00:42:20;;;;;;;15.37;8.57;;;6.30;99.90;;;;;;5013406;28;20030;-76
2021/10/30 00:44:46;;;;;;;13.47;8.13;;;6.30;99.90;;;;;;5012965;28;20024;-77
2021/10/30 00:47:13;;;;;;;15.70;8.97;;;6.30;99.90;;;;;;5013481;28;20021;-77
2021/10/30 00:49:42;;;;;;;15.03;8.60;;;6.30;99.90;;;;;;5014189;28;20120;-77
2021/10/30 00:52:10;;;;;;;13.57;8.40;;;6.20;99.90;;;;;;5014526;28;20466;-77
2021/10/30 00:54:37;;;;;;;15.20;9.40;;;6.20;99.90;;;;;;5011736;28;20022;-77
2021/10/30 00:57:05;;;;;;;18.07;10.03;;;6.10;99.90;;;;;;5012759;28;20026;-75
2021/10/30 00:59:31;;;;;;;16.47;9.83;;;6.00;99.90;;;;;;5011853;28;20225;-76
2021/10/30 01:01:58;;;;;;;15.60;9.23;;;6.10;99.90;;;;;;5012523;28;20026;-76
2021/10/30 01:04:23;;;;;;;13.83;8.47;;;6.00;99.90;;;;;;5011975;28;20088;-76
2021/10/30 01:06:52;;;;;;;16.07;9.17;;;6.00;99.90;;;;;;5013587;28;20514;-76
2021/10/30 01:09:20;;;;;;;15.00;8.97;;;6.00;99.90;;;;;;5011837;28;20069;-76
2021/10/30 01:11:46;;;;;;;13.67;8.23;;;6.00;99.90;;;;;;5013650;28;20029;-76
2021/10/30 01:14:13;;;;;;;13.33;7.83;;;5.90;99.90;;;;;;5011996;28;20033;-76
2021/10/30 01:16:39;;;;;;;22.23;9.17;;;6.00;99.90;;;;;;5013374;28;20032;-76
2021/10/30 01:19:07;;;;;;;13.70;8.50;;;5.90;99.90;;;;;;5013496;28;20100;-76
2021/10/30 01:21:35;;;;;;;13.07;7.83;;;5.80;99.90;;;;;;5013009;28;20021;-76
2021/10/30 01:24:03;;;;;;;14.90;8.33;;;5.90;99.90;;;;;;5012128;28;20022;-76
2021/10/30 01:26:29;;;;;;;14.17;8.50;;;5.90;99.90;;;;;;5011539;28;20025;-76
2021/10/30 01:28:55;;;;;;;14.70;8.07;;;6.00;99.90;;;;;;5013279;28;20042;-77
2021/10/30 01:31:21;;;;;;;12.33;7.80;;;6.10;99.90;;;;;;5012920;28;20018;-76
2021/10/30 01:33:50;;;;;;;12.80;7.73;;;6.00;99.90;;;;;;5012709;28;20112;-77
2021/10/30 01:36:20;;;;;;;11.63;7.90;;;6.10;99.90;;;;;;5012459;28;20085;-77
2021/10/30 01:38:46;;;;;;;10.97;7.30;;;6.10;99.90;;;;;;5012549;28;20026;-76
2021/10/30 01:41:12;;;;;;;11.37;7.40;;;6.10;99.90;;;;;;5012298;28;20136;-77
2021/10/30 01:43:38;;;;;;;13.97;8.50;;;6.10;99.90;;;;;;5012377;28;20136;-77
2021/10/30 01:46:05;;;;;;;12.03;8.07;;;6.10;99.90;;;;;;5012546;28;20022;-77
2021/10/30 01:48:34;;;;;;;13.53;8.13;;;6.10;99.90;;;;;;5011648;28;20037;-77
2021/10/30 01:51:00;;;;;;;13.03;8.63;;;6.10;99.90;;;;;;5012469;28;20021;-77
2021/10/30 01:53:26;;;;;;;12.70;8.33;;;6.10;99.90;;;;;;5012808;28;20018;-77
2021/10/30 01:55:51;;;;;;;12.70;7.77;;;6.10;99.90;;;;;;5012266;28;20028;-77
2021/10/30 01:58:17;;;;;;;12.67;8.63;;;6.20;99.90;;;;;;5011920;28;20105;-77
2021/10/30 02:00:44;;;;;;;15.27;9.03;;;6.20;99.90;;;;;;5012471;28;20057;-77
2021/10/30 02:03:10;;;;;;;12.17;7.87;;;6.20;99.90;;;;;;5012311;28;20029;-77
2021/10/30 02:05:36;;;;;;;12.67;8.07;;;6.20;99.90;;;;;;5012491;28;20022;-77
2021/10/30 02:08:02;;;;;;;13.77;8.63;;;6.10;99.90;;;;;;5032050;28;20033;-76
2021/10/30 02:10:28;;;;;;;15.47;8.53;;;6.20;99.90;;;;;;5031915;28;20379;-77
2021/10/30 02:12:54;;;;;;;11.80;7.67;;;6.10;99.90;;;;;;5032298;28;20076;-76
2021/10/30 02:15:20;;;;;;;11.13;7.00;;;6.10;99.90;;;;;;5031619;28;20029;-77
2021/10/30 02:17:45;;;;;;;11.03;7.53;;;6.00;99.90;;;;;;5032303;28;20024;-76
2021/10/30 02:20:12;;;;;;;12.00;8.03;;;6.00;99.90;;;;;;5032013;28;20115;-77
2021/10/30 02:22:38;;;;;;;12.77;7.60;;;6.00;99.90;;;;;;5016172;28;20041;-76
2021/10/30 02:25:09;;;;;;;14.43;8.87;;;6.10;99.90;;;;;;5016856;28;20443;-77
2021/10/30 02:27:35;;;;;;;13.43;8.30;;;6.10;99.90;;;;;;5031253;28;20467;-76
2021/10/30 02:30:01;;;;;;;14.83;8.77;;;6.10;99.90;;;;;;5032076;28;20052;-76
2021/10/30 02:32:26;;;;;;;12.90;7.83;;;6.10;99.90;;;;;;5015849;28;20455;-76
2021/10/30 02:34:52;;;;;;;12.67;7.40;;;6.10;99.90;;;;;;5016216;28;20026;-76
2021/10/30 02:37:18;;;;;;;11.57;7.73;;;6.10;99.90;;;;;;5015389;28;20018;-76
2021/10/30 02:39:43;;;;;;;14.60;8.07;;;6.10;99.90;;;;;;5031283;28;20025;-75
2021/10/30 02:42:09;;;;;;;14.67;8.47;;;6.00;99.90;;;;;;5031489;28;20026;-75
2021/10/30 02:44:35;;;;;;;21.23;8.43;;;6.10;99.90;;;;;;5015740;28;20026;-76
2021/10/30 02:47:01;;;;;;;12.73;7.07;;;6.00;99.90;;;;;;5016209;28;20438;-76
2021/10/30 02:49:27;;;;;;;14.47;8.03;;;6.00;99.90;;;;;;5030879;28;20037;-76
2021/10/30 02:51:52;;;;;;;16.33;7.80;;;6.00;99.90;;;;;;5031307;28;20018;-76
2021/10/30 02:54:18;;;;;;;14.83;7.70;;;6.00;99.90;;;;;;5030698;28;20052;-76
2021/10/30 02:56:44;;;;;;;14.80;7.57;;;6.00;99.90;;;;;;5030938;28;20036;-76
2021/10/30 02:59:09;;;;;;;14.43;8.07;;;6.00;99.90;;;;;;5016231;28;20046;-75
2021/10/30 03:01:35;;;;;;;14.23;8.23;;;6.00;99.90;;;;;;5015525;28;20087;-76
2021/10/30 03:04:00;;;;;;;17.00;9.13;;;6.00;99.90;;;;;;5031181;28;20022;-76
2021/10/30 03:06:26;;;;;;;18.23;9.13;;;6.00;99.90;;;;;;5030594;28;20381;-77
2021/10/30 03:08:52;;;;;;;14.63;8.17;;;5.90;99.90;;;;;;5031499;28;20026;-77
2021/10/30 03:11:18;;;;;;;15.47;8.63;;;6.00;99.90;;;;;;5015623;28;20026;-76
2021/10/30 03:13:45;;;;;;;15.47;8.23;;;6.00;99.90;;;;;;5030898;28;20029;-76
2021/10/30 03:16:11;;;;;;;14.53;7.93;;;6.00;99.90;;;;;;5030460;28;20022;-75
2021/10/30 03:18:37;;;;;;;14.97;9.10;;;6.00;99.90;;;;;;5013956;28;20033;-76
2021/10/30 03:21:03;;;;;;;14.53;8.50;;;6.00;99.90;;;;;;5015518;28;20029;-76
2021/10/30 03:23:29;;;;;;;13.27;7.83;;;6.00;99.90;;;;;;5014829;28;20100;-76
2021/10/30 03:25:54;;;;;;;13.70;7.90;;;6.00;99.90;;;;;;5030625;28;20080;-77
2021/10/30 03:28:20;;;;;;;14.40;8.17;;;6.00;99.90;;;;;;5015154;28;20025;-78
2021/10/30 03:30:46;;;;;;;15.17;8.20;;;6.00;99.90;;;;;;5030650;28;20026;-77
2021/10/30 03:33:12;;;;;;;19.20;9.07;;;6.00;99.90;;;;;;5015375;28;20058;-76
2021/10/30 03:35:38;;;;;;;14.80;8.30;;;6.00;99.90;;;;;;5014727;28;20053;-76
2021/10/30 03:38:04;;;;;;;14.17;7.90;;;6.00;99.90;;;;;;5030940;28;20378;-76
2021/10/30 03:40:29;;;;;;;13.77;7.87;;;6.00;99.90;;;;;;5030085;28;20112;-76
2021/10/30 03:42:55;;;;;;;13.33;7.97;;;5.90;99.90;;;;;;5030450;28;20022;-76
2021/10/30 03:45:21;;;;;;;13.83;7.63;;;5.90;99.90;;;;;;5030138;28;20057;-77
2021/10/30 03:47:47;;;;;;;13.10;8.23;;;6.00;99.90;;;;;;5030412;28;20116;-77
2021/10/30 03:50:12;;;;;;;12.73;7.00;;;6.00;99.90;;;;;;5015248;28;20030;-76
2021/10/30 03:52:38;;;;;;;15.23;7.63;;;6.00;99.90;;;;;;5014582;28;20025;-75
2021/10/30 03:55:05;;;;;;;14.40;7.77;;;6.10;99.90;;;;;;5030222;28;20071;-76
2021/10/30 03:57:31;;;;;;;11.50;7.30;;;6.10;99.90;;;;;;5029538;28;20405;-76
2021/10/30 03:59:58;;;;;;;13.47;7.27;;;6.10;99.90;;;;;;5030262;28;20025;-76
2021/10/30 04:02:23;;;;;;;15.17;7.70;;;6.10;99.90;;;;;;5029180;28;20022;-76
2021/10/30 04:04:49;;;;;;;12.93;7.90;;;6.10;99.90;;;;;;5029819;28;20026;-76
2021/10/30 04:07:15;;;;;;;14.40;6.83;;;6.00;99.90;;;;;;5029328;28;20033;-75
2021/10/30 04:09:40;;;;;;;14.27;7.93;;;6.00;99.90;;;;;;5029065;28;20034;-76
2021/10/30 04:12:06;;;;;;;14.93;8.00;;;5.90;99.90;;;;;;5029591;28;20033;-76
2021/10/30 04:14:32;;;;;;;12.60;7.63;;;5.90;99.90;;;;;;5028896;28;20045;-75
2021/10/30 04:16:57;;;;;;;15.53;7.40;;;5.90;99.90;;;;;;5029342;28;20352;-76
2021/10/30 04:19:23;;;;;;;13.63;7.43;;;5.90;99.90;;;;;;5014475;28;20042;-78
2021/10/30 04:21:49;;;;;;;12.70;7.50;;;6.00;99.90;;;;;;5014738;28;20061;-77
2021/10/30 04:24:14;;;;;;;16.73;7.63;;;5.90;99.90;;;;;;5030068;28;20022;-77
2021/10/30 04:26:40;;;;;;;15.90;8.00;;;6.00;99.90;;;;;;5029383;28;20112;-77
2021/10/30 04:29:06;;;;;;;12.57;7.37;;;6.00;99.90;;;;;;5013953;28;20044;-76
2021/10/30 04:31:33;;;;;;;13.17;7.60;;;6.00;99.90;;;;;;5029430;28;20026;-77
2021/10/30 04:34:01;;;;;;;13.93;7.60;;;5.90;99.90;;;;;;5014279;28;20047;-76
2021/10/30 04:36:29;;;;;;;15.20;7.63;;;6.00;99.90;;;;;;5013580;28;20026;-77
2021/10/30 04:38:56;;;;;;;12.57;6.97;;;5.90;99.90;;;;;;5029471;28;20036;-77
2021/10/30 04:41:22;;;;;;;12.17;6.93;;;5.90;99.90;;;;;;5013993;28;20021;-77
2021/10/30 04:43:48;;;;;;;12.73;7.47;;;5.90;99.90;;;;;;5029573;28;20021;-76
2021/10/30 04:46:17;;;;;;;13.70;7.83;;;5.90;99.90;;;;;;5028960;28;20021;-76
2021/10/30 04:48:43;;;;;;;12.77;7.47;;;6.00;99.90;;;;;;5028682;28;20036;-76
2021/10/30 04:51:10;;;;;;;12.23;7.23;;;6.00;99.90;;;;;;5014102;28;20490;-77
2021/10/30 04:53:38;;;;;;;14.30;7.83;;;6.00;99.90;;;;;;5028428;28;20462;-77
2021/10/30 04:56:05;;;;;;;12.10;7.03;;;6.00;99.90;;;;;;5028559;28;20427;-77
2021/10/30 04:58:31;;;;;;;12.53;6.50;;;6.00;99.90;;;;;;5028561;28;20391;-77
2021/10/30 05:00:58;;;;;;;13.40;7.50;;;6.00;99.90;;;;;;5013197;28;20029;-75
2021/10/30 05:03:24;;;;;;;15.83;7.47;;;5.90;99.90;;;;;;5028131;28;20456;-75
2021/10/30 05:05:51;;;;;;;11.90;7.17;;;5.90;99.90;;;;;;5028628;28;20076;-76
2021/10/30 05:08:16;;;;;;;11.93;6.70;;;5.90;99.90;;;;;;5028569;28;20022;-75
2021/10/30 05:10:42;;;;;;;13.30;7.23;;;5.90;99.90;;;;;;5012914;28;20447;-76
2021/10/30 05:13:08;;;;;;;11.90;6.77;;;5.90;99.90;;;;;;5028357;28;20033;-76
2021/10/30 05:15:34;;;;;;;12.87;6.90;;;5.80;99.90;;;;;;5012524;28;20022;-76
2021/10/30 05:17:59;;;;;;;12.20;7.30;;;5.80;99.90;;;;;;5013363;28;20052;-76
2021/10/30 05:20:27;;;;;;;12.93;6.93;;;5.90;99.90;;;;;;5027706;28;20030;-77
2021/10/30 05:22:52;;;;;;;11.00;6.40;;;5.80;99.90;;;;;;5028382;28;20026;-76
2021/10/30 05:25:18;;;;;;;12.30;6.70;;;5.80;99.90;;;;;;5013167;28;20032;-75
2021/10/30 05:27:43;;;;;;;15.27;7.20;;;5.80;99.90;;;;;;5012772;28;20383;-76
2021/10/30 05:30:09;;;;;;;11.60;6.93;;;5.70;99.90;;;;;;5028355;28;20072;-76
2021/10/30 05:32:35;;;;;;;12.93;7.00;;;5.70;99.90;;;;;;5027573;28;20026;-76
2021/10/30 05:35:02;;;;;;;14.33;7.47;;;5.60;99.90;;;;;;5021644;28;20988;-77
2021/10/30 05:37:28;;;;;;;12.67;7.30;;;5.70;99.90;;;;;;5008594;28;20038;-76
2021/10/30 05:39:53;;;;;;;10.67;7.20;;;5.80;99.90;;;;;;5008714;28;20466;-77
2021/10/30 05:42:19;;;;;;;9.77;6.50;;;5.80;99.90;;;;;;5011798;28;20468;-76
2021/10/30 05:44:45;;;;;;;13.40;6.57;;;5.80;99.90;;;;;;5012127;28;20076;-76
2021/10/30 05:47:11;;;;;;;12.53;6.97;;;5.80;99.90;;;;;;5012865;28;20382;-77
2021/10/30 05:49:39;;;;;;;12.33;7.03;;;5.80;99.90;;;;;;5013091;28;20487;-77
2021/10/30 05:52:07;;;;;;;11.07;6.33;;;5.80;99.90;;;;;;5012140;28;20026;-77
2021/10/30 05:54:33;;;;;;;12.83;6.97;;;5.80;99.90;;;;;;5013508;28;20025;-77
2021/10/30 05:56:59;;;;;;;13.47;7.40;;;5.80;99.90;;;;;;5012550;28;20069;-76
2021/10/30 05:59:30;;;;;;;13.20;7.40;;;5.80;99.90;;;;;;5009873;28;20073;-76
2021/10/30 06:01:55;;;;;;;12.20;7.30;;;5.80;99.90;;;;;;5010470;28;20431;-76
2021/10/30 06:04:21;;;;;;;11.33;6.90;;;5.90;99.90;;;;;;5013531;28;20049;-76
2021/10/30 06:06:47;;;;;;;10.93;6.50;;;5.90;99.90;;;;;;5014634;28;20096;-75
2021/10/30 06:09:14;;;;;;;11.77;6.63;;;5.90;99.90;;;;;;5013617;28;20558;-76
2021/10/30 06:11:40;;;;;;;11.60;6.57;;;6.00;99.90;;;;;;5012156;28;20467;-76
2021/10/30 06:14:06;;;;;;;11.67;6.63;;;6.00;99.90;;;;;;5013131;28;20029;-76
2021/10/30 06:16:35;;;;;;;11.43;7.10;;;6.00;99.90;;;;;;5013071;28;20029;-77
2021/10/30 06:19:01;;;;;;;12.87;7.00;;;6.00;99.90;;;;;;5012732;28;20029;-77
2021/10/30 06:21:27;;;;;;;10.33;6.37;;;6.00;99.90;;;;;;5012126;28;20076;-77
2021/10/30 06:23:54;;;;;;;10.67;6.60;;;6.00;99.90;;;;;;5012694;28;20030;-77
2021/10/30 06:26:20;;;;;;;14.43;7.67;;;6.00;99.90;;;;;;5011541;28;20548;-75
2021/10/30 06:28:47;;;;;;;12.07;6.70;;;6.00;99.90;;;;;;5011081;28;20042;-76
2021/10/30 06:31:14;;;;;;;15.13;8.33;;;6.00;99.90;;;;;;5010024;28;20029;-76
2021/10/30 06:33:41;;;;;;;11.80;6.60;;;6.00;99.90;;;;;;5012694;28;20049;-76
2021/10/30 06:36:07;;;;;;;11.93;7.10;;;5.90;99.90;;;;;;5013084;28;20383;-76
2021/10/30 06:38:33;;;;;;;14.53;7.43;;;5.90;99.90;;;;;;5010984;28;20198;-76
2021/10/30 06:41:01;;;;;;;11.43;6.93;;;5.90;99.90;;;;;;5013089;28;20120;-77
2021/10/30 06:43:30;;;;;;;12.10;7.43;;;5.90;99.90;;;;;;5011548;28;20056;-77
2021/10/30 06:45:55;;;;;;;12.83;7.13;;;6.00;99.90;;;;;;5012211;28;20510;-77
2021/10/30 06:48:21;;;;;;;12.43;7.90;;;6.00;99.90;;;;;;5012294;28;20084;-77
2021/10/30 06:50:47;;;;;;;11.47;6.70;;;6.00;99.90;;;;;;5011623;28;20045;-77
2021/10/30 06:53:13;;;;;;;13.20;7.27;;;6.10;99.90;;;;;;5012777;28;20529;-77
2021/10/30 06:55:40;;;;;;;14.03;6.97;;;6.10;99.90;;;;;;5011723;28;20029;-77
2021/10/30 06:58:06;;;;;;;11.90;6.80;;;6.10;99.90;;;;;;5011382;28;20107;-76
2021/10/30 07:00:32;;;;;;;10.70;6.43;;;6.20;99.90;;;;;;5009942;28;20492;-77
2021/10/30 07:02:59;;;;;;;13.03;6.93;;;6.30;99.90;;;;;;5005553;28;20498;-76
2021/10/30 07:05:25;;;;;;;13.57;7.17;;;6.40;99.90;;;;;;5013767;28;20026;-76
2021/10/30 07:07:50;;;;;;;12.67;7.53;;;6.40;99.90;;;;;;5010878;28;20056;-76
2021/10/30 07:10:16;;;;;;;12.07;7.00;;;6.30;99.90;;;;;;5011237;28;20430;-76
2021/10/30 07:12:42;;;;;;;12.57;6.57;;;6.40;99.90;;;;;;5010130;28;20026;-76
2021/10/30 07:15:10;;;;;;;10.43;6.80;;;6.40;99.90;;;;;;5012314;28;20574;-76
2021/10/30 07:17:36;;;;;;;11.40;6.63;;;6.50;99.90;;;;;;5011772;28;20128;-76
2021/10/30 07:20:03;;;;;;;13.97;6.47;;;6.50;99.90;;;;;;5012572;28;20033;-77
2021/10/30 07:22:29;;;;;;;12.10;6.40;;;6.50;99.90;;;;;;5012663;28;20434;-77
2021/10/30 07:24:54;;;;;;;12.97;6.93;;;6.50;99.90;;;;;;5011910;28;20030;-76
2021/10/30 07:27:20;;;;;;;13.07;7.37;;;6.50;99.90;;;;;;5011079;28;20037;-77
2021/10/30 07:29:48;;;;;;;11.20;6.60;;;6.60;99.90;;;;;;5010437;28;20505;-77
2021/10/30 07:32:15;;;;;;;12.37;6.57;;;6.60;99.90;;;;;;5025283;28;20030;-77
2021/10/30 07:34:41;;;;;;;10.07;6.43;;;6.60;99.90;;;;;;5011744;28;20029;-77
2021/10/30 07:37:06;;;;;;;13.60;6.97;;;6.60;99.90;;;;;;5027626;28;20046;-77
2021/10/30 07:39:34;;;;;;;11.87;6.60;;;6.60;99.90;;;;;;5009863;28;20053;-77
2021/10/30 07:42:00;;;;;;;14.60;6.70;;;6.70;99.90;;;;;;5011278;28;20049;-76
2021/10/30 07:44:25;;;;;;;10.77;6.60;;;6.60;99.90;;;;;;5026488;28;20525;-76
2021/10/30 07:46:51;;;;;;;13.10;6.50;;;6.60;99.90;;;;;;5025973;28;20133;-76
2021/10/30 07:49:17;;;;;;;11.73;7.07;;;6.60;99.90;;;;;;5026988;28;20034;-76
2021/10/30 07:51:42;;;;;;;11.20;6.23;;;6.70;99.90;;;;;;5026633;28;20030;-76
2021/10/30 07:54:08;;;;;;;11.43;6.60;;;6.70;99.90;;;;;;5008310;28;20121;-77
2021/10/30 07:56:35;;;;;;;12.87;6.90;;;6.70;99.90;;;;;;5026047;28;20344;-77
2021/10/30 07:59:00;;;;;;;11.07;6.47;;;6.70;99.90;;;;;;5009679;28;20089;-77
2021/10/30 08:01:26;;;;;;;12.93;6.63;;;6.70;99.90;;;;;;5011334;28;20467;-76
2021/10/30 08:03:52;;;;;;;11.50;6.83;;;6.70;99.90;;;;;;5008516;28;20048;-76
2021/10/30 08:06:18;;;;;;;15.03;7.30;;;6.70;99.90;;;;;;5010711;28;20025;-76
2021/10/30 08:08:43;;;;;;;11.43;6.60;;;6.70;99.90;;;;;;5008894;28;20116;-77
2021/10/30 08:11:09;;;;;;;11.10;6.17;;;6.70;99.90;;;;;;5010701;28;20072;-76
2021/10/30 08:13:35;;;;;;;10.50;6.57;;;6.80;99.90;;;;;;5025344;28;20076;-76
2021/10/30 08:16:00;;;;;;;11.60;6.63;;;6.80;99.90;;;;;;5009720;28;20454;-76
2021/10/30 08:18:26;;;;;;;10.53;6.70;;;6.90;99.90;;;;;;5011304;28;20026;-76
2021/10/30 08:20:52;;;;;;;10.80;6.00;;;6.90;99.90;;;;;;5009363;28;20422;-77
2021/10/30 08:23:18;;;;;;;9.80;5.93;;;6.90;99.90;;;;;;5009124;28;20455;-78
2021/10/30 08:25:44;;;;;;;9.15;5.68;;;6.90;99.90;;;;;;5025907;28;20112;-76
2021/10/30 08:28:10;;;;;;;10.27;6.47;;;6.90;99.90;;;;;;5011396;28;20025;-76
2021/10/30 08:30:36;;;;;;;10.07;5.60;;;7.00;99.90;;;;;;5011194;28;20029;-77
2021/10/30 08:33:01;;;;;;;8.15;5.75;;;7.00;99.90;;;;;;5010754;28;20030;-76
2021/10/30 08:35:27;;;;;;;12.20;6.30;;;7.10;99.90;;;;;;5026921;28;20057;-76
2021/10/30 08:37:53;;;;;;;9.90;5.95;;;7.00;99.90;;;;;;5009817;28;20037;-77
2021/10/30 08:40:18;;;;;;;10.15;6.18;;;7.10;99.90;;;;;;5009250;28;20061;-77
2021/10/30 08:42:47;;;;;;;9.13;6.20;;;7.10;99.90;;;;;;5024657;28;20438;-76
2021/10/30 08:45:13;;;;;;;9.93;5.47;;;7.20;99.90;;;;;;5008777;28;20022;-76
2021/10/30 08:47:41;;;;;;;9.90;5.50;;;7.20;99.90;;;;;;5010198;28;20418;-77
2021/10/30 08:50:07;;;;;;;9.82;5.80;;;7.20;99.90;;;;;;5008837;28;20037;-77
2021/10/30 08:52:33;;;;;;;9.15;5.22;;;7.30;99.90;;;;;;5025824;28;20076;-77
2021/10/30 08:55:03;;;;;;;9.68;6.30;;;7.30;99.90;;;;;;5010590;28;20037;-78
2021/10/30 08:57:29;;;;;;;8.60;5.40;;;7.30;99.90;;;;;;5010560;28;20030;-77
2021/10/30 08:59:54;;;;;;;10.48;6.03;;;7.40;99.90;;;;;;5008412;28;20040;-77
2021/10/30 09:02:29;;;;;;;9.90;5.95;;;7.40;99.90;;;;;;5010937;28;20056;-75
2021/10/30 09:05:23;;;;;;;11.20;6.18;;;7.40;99.80;;;;;;5006330;28;20029;-74
2021/10/30 09:07:53;;;;;;;8.98;5.57;;;7.40;99.50;;;;;;5009497;28;20192;-75
2021/10/30 09:10:25;;;;;;;9.73;5.03;;;7.50;99.80;;;;;;5008830;28;20083;-75
2021/10/30 09:12:56;;;;;;;9.60;5.50;;;7.50;99.70;;;;;;5023838;28;20018;-74
2021/10/30 09:15:31;;;;;;;10.25;5.78;;;7.60;99.90;;;;;;5023507;28;20034;-79
2021/10/30 09:17:58;;;;;;;8.65;5.35;;;7.60;99.70;;;;;;5009350;28;20049;-77
2021/10/30 09:20:36;;;;;;;8.70;5.40;;;7.60;99.80;;;;;;5009920;28;20025;-78
2021/10/30 09:23:07;;;;;;;9.85;5.88;;;7.50;99.90;;;;;;5009462;28;20030;-78
2021/10/30 09:25:33;;;;;;;6.38;3.97;;;7.50;99.90;;;;;;5011261;28;20026;-75
2021/10/30 09:28:01;;;;;;;9.85;5.65;;;7.50;99.90;;;;;;5011504;28;20038;-76
2021/10/30 09:30:34;;;;;;;11.13;5.60;;;7.50;99.90;;;;;;5008570;28;20042;-74
2021/10/30 09:33:02;;;;;;;9.77;5.82;;;7.60;99.90;;;;;;5009673;28;20859;-75
2021/10/30 09:35:31;;;;;;;9.57;5.45;;;7.50;99.90;;;;;;5010226;28;20037;-76
2021/10/30 09:37:58;;;;;;;9.40;5.80;;;7.60;99.90;;;;;;5009717;28;20037;-75
2021/10/30 09:40:27;;;;;;;8.45;5.57;;;7.60;99.90;;;;;;5009128;28;20030;-74
2021/10/30 09:43:15;;;;;;;10.05;6.07;;;7.50;99.90;;;;;;5009438;28;20108;-75
2021/10/30 09:45:49;;;;;;;8.65;5.20;;;7.50;99.90;;;;;;5007489;28;20053;-76
2021/10/30 09:48:27;;;;;;;8.07;5.38;;;7.60;99.90;;;;;;4994206;28;20049;-76
2021/10/30 09:50:58;;;;;;;9.27;5.88;;;7.50;99.90;;;;;;5007861;28;20038;-75
2021/10/30 09:53:33;;;;;;;9.00;5.72;;;7.50;99.90;;;;;;5009246;28;20022;-75
2021/10/30 09:56:09;;;;;;;12.15;5.72;;;7.50;99.90;;;;;;5008626;28;20080;-76
2021/10/30 09:58:42;;;;;;;10.55;5.57;;;7.50;99.90;;;;;;5008449;28;20468;-75
2021/10/30 10:01:19;;;;;;;10.60;6.32;;;7.60;99.90;;;;;;5008910;28;20030;-74
2021/10/30 10:03:47;;;;;;;11.13;5.53;;;7.50;99.90;;;;;;5007429;28;20145;-75
2021/10/30 10:06:17;;;;;;;9.00;5.50;;;7.50;99.90;;;;;;5008372;28;20387;-75
2021/10/30 10:08:43;;;;;;;10.25;6.28;;;7.50;99.90;;;;;;5023724;28;20731;-75
2021/10/30 10:11:10;;;;;;;9.00;5.22;;;7.50;99.90;;;;;;5007374;28;20426;-75
2021/10/30 10:13:37;;;;;;;10.18;6.15;;;7.60;99.90;;;;;;5007840;28;20049;-74
2021/10/30 10:16:14;;;;;;;8.73;5.55;;;7.60;99.90;;;;;;5005238;28;20030;-74
2021/10/30 10:18:41;;;;;;;11.13;6.20;;;7.70;99.90;;;;;;5007020;28;20026;-75
2021/10/30 10:21:11;;;;;;;10.38;6.60;;;7.70;99.90;;;;;;5007010;28;20030;-75
2021/10/30 10:23:40;;;;;;;9.25;6.20;;;7.70;99.90;;;;;;5007108;28;20030;-74
2021/10/30 10:26:06;;;;;;;12.43;7.30;;;7.60;99.90;;;;;;5007225;28;20451;-75
2021/10/30 10:28:34;;;;;;;12.85;6.60;;;7.70;99.90;;;;;;5010776;28;20084;-74
2021/10/30 10:31:22;;;;;;;14.75;7.65;;;7.70;99.90;;;;;;5010565;28;20038;-75
2021/10/30 10:34:12;;;;;;;11.02;6.80;;;7.70;99.90;;;;;;5024032;28;20072;-75
2021/10/30 10:36:40;;;;;;;11.43;6.57;;;7.70;99.90;;;;;;5010954;28;20030;-75
2021/10/30 10:39:05;;;;;;;11.70;7.10;;;7.70;99.90;;;;;;5012259;28;20026;-76
2021/10/30 10:41:37;;;;;;;10.65;6.53;;;7.60;99.90;;;;;;5010523;28;20092;-77
2021/10/30 10:44:15;;;;;;;12.32;6.38;;;7.60;99.90;;;;;;5010501;28;20037;-76
2021/10/30 10:46:50;;;;;;;14.75;8.38;;;7.50;99.90;;;;;;5011933;28;20437;-76
2021/10/30 10:49:27;;;;;;;12.32;6.75;;;7.60;99.90;;;;;;5010887;28;20034;-75
2021/10/30 10:52:16;;;;;;;13.00;7.07;;;7.60;99.90;;;;;;5040769;28;20026;-78
2021/10/30 10:55:02;;;;;;;10.50;6.50;;;7.70;99.90;;;;;;5002159;28;20548;-75
2021/10/30 10:57:32;;;;;;;9.88;6.22;;;7.70;99.90;;;;;;5011254;28;20055;-75
2021/10/30 11:00:14;;;;;;;10.18;6.10;;;7.80;99.90;;;;;;5008726;28;20026;-76
2021/10/30 11:02:49;;;;;;;9.85;6.07;;;7.80;99.90;;;;;;5009184;28;20034;-76
2021/10/30 11:05:23;;;;;;;11.40;6.28;;;7.80;99.90;;;;;;5027202;28;20103;-75
2021/10/30 11:07:52;;;;;;;10.15;5.85;;;7.80;99.90;;;;;;5007011;28;20038;-75
2021/10/30 11:10:35;;;;;;;9.77;6.15;;;7.90;99.90;;;;;;5009877;28;20536;-76
2021/10/30 11:13:06;;;;;;;11.27;6.25;;;7.90;99.90;;;;;;5026831;28;20026;-74
2021/10/30 11:15:37;;;;;;;11.68;6.38;;;7.90;99.90;;;;;;5011224;28;20345;-75
2021/10/30 11:20:48;;;;;;;11.10;6.75;;;7.90;99.90;;;;;;5010712;28;20037;-75
2021/10/30 11:23:25;;;;;;;10.73;6.88;;;7.90;99.90;;;;;;5023182;28;20022;-75
2021/10/30 11:26:04;;;;;;;11.73;6.97;;;8.00;99.90;;;;;;5008014;28;20026;-75
2021/10/30 11:28:37;;;;;;;12.07;6.85;;;8.00;99.90;;;;;;5025272;28;20484;-75
2021/10/30 11:31:15;;;;;;;12.20;6.82;;;8.10;99.90;;;;;;5009847;28;20374;-75
2021/10/30 11:33:40;;;;;;;11.23;6.82;;;8.10;99.90;;;;;;5009615;28;20022;-75
2021/10/30 11:36:14;;;;;;;10.25;6.78;;;8.20;99.90;;;;;;5010634;28;20018;-76
2021/10/30 11:38:52;;;;;;;13.07;7.15;;;8.20;99.90;;;;;;5001651;28;20037;-76
2021/10/30 11:41:29;;;;;;;21.50;10.38;;;8.20;99.90;;;;;;5010422;28;20057;-74
2021/10/30 11:44:03;;;;;;;12.23;7.80;;;8.20;99.90;;;;;;5007178;28;20125;-75
2021/10/30 11:46:30;;;;;;;13.13;7.20;;;8.20;99.90;;;;;;5009025;28;20061;-75
2021/10/30 11:48:58;;;;;;;10.82;7.15;;;8.20;99.90;;;;;;5010002;28;20038;-76
2021/10/30 11:51:31;;;;;;;12.10;7.32;;;8.10;99.90;;;;;;5009274;28;20124;-75
2021/10/30 11:53:57;;;;;;;10.73;6.63;;;8.20;99.90;;;;;;5010714;28;20025;-74
2021/10/30 11:56:28;;;;;;;11.02;6.90;;;8.20;99.90;;;;;;5010150;28;20034;-75
2021/10/30 11:58:59;;;;;;;10.88;6.57;;;8.20;99.90;;;;;;5010159;28;20125;-74
2021/10/30 12:01:28;;;;;;;12.70;7.57;;;8.20;99.90;;;;;;5010788;28;20026;-85
2021/10/30 12:04:01;;;;;;;11.82;7.13;;;8.20;99.90;;;;;;5009876;28;20435;-78
2021/10/30 12:06:30;;;;;;;10.48;6.75;;;8.10;99.90;;;;;;5011824;28;20265;-78
2021/10/30 12:08:57;;;;;;;13.95;7.40;;;8.20;99.90;;;;;;5009549;28;20034;-78
2021/10/30 12:11:24;;;;;;;12.18;7.25;;;8.20;99.90;;;;;;5010234;28;20030;-78
2021/10/30 12:13:50;;;;;;;11.88;6.93;;;8.20;99.90;;;;;;5009848;28;20572;-79
2021/10/30 12:16:16;;;;;;;11.95;7.00;;;8.20;99.90;;;;;;5011206;28;20024;-78
2021/10/30 12:18:43;;;;;;;12.68;7.57;;;8.20;99.90;;;;;;5009465;28;20030;-78
2021/10/30 12:21:13;;;;;;;12.65;7.63;;;8.20;99.90;;;;;;5011215;28;20026;-78
2021/10/30 12:23:57;;;;;;;14.35;8.48;;;8.20;99.90;;;;;;5010018;28;20034;-79
2021/10/30 12:26:24;;;;;;;12.38;8.02;;;8.20;99.90;;;;;;4999104;28;20861;-76
2021/10/30 12:28:49;;;;;;;12.18;7.45;;;8.10;99.90;;;;;;5024004;28;20044;-75
2021/10/30 12:31:29;;;;;;;12.30;7.47;;;8.10;99.90;;;;;;5008416;28;20025;-76
2021/10/30 12:33:57;;;;;;;13.05;7.78;;;8.10;99.90;;;;;;5006892;28;20022;-78
2021/10/30 12:36:28;;;;;;;14.68;8.43;;;8.10;99.90;;;;;;5008949;28;20026;-77
2021/10/30 12:38:56;;;;;;;13.57;7.93;;;8.10;99.90;;;;;;5024810;28;20485;-76
2021/10/30 12:41:30;;;;;;;13.20;8.30;;;8.10;99.90;;;;;;5009015;28;20029;-76
2021/10/30 12:43:58;;;;;;;13.45;8.30;;;8.20;99.90;;;;;;5007524;28;20026;-78
2021/10/30 12:46:24;;;;;;;13.10;7.60;;;8.20;99.90;;;;;;5008245;28;20030;-75
2021/10/30 12:48:50;;;;;;;13.70;8.13;;;8.30;99.90;;;;;;5023556;28;20092;-75
2021/10/30 12:51:18;;;;;;;14.23;8.30;;;8.30;99.90;;;;;;5007911;28;20025;-80
2021/10/30 12:53:47;;;;;;;11.40;7.70;;;8.30;99.90;;;;;;5009563;28;20068;-78